Tuesday, April 24, 2018, 4:14 AM EDT
Back to Local

KORE, Orange, Orange Municipal Airport

Location: Orange, MA, United States Lat: 42.572
Local Time: 4:14 AM EDT ( 8:14 GMT) Lon: -72.278
Time Zone: US/Eastern Elev: 554 ft

Show me the last for .
Show Decoded

2018-04-24 03:52 METAR KORE 240752Z AUTO 00000KT 10SM CLR 01/M03 A3040 RMK AO2 SLP298 T00061028 =
2018-04-24 02:52 METAR KORE 240652Z AUTO 00000KT 10SM CLR 01/M02 A3040 RMK AO2 SLP298 T00111022 =
2018-04-24 01:52 METAR KORE 240552Z AUTO 33003KT 10SM CLR 01/M02 A3041 RMK AO2 SLP300 T00111022
                 10133 20011 58001 =
2018-04-24 00:52 METAR KORE 240452Z AUTO 00000KT 10SM CLR 03/M02 A3042 RMK AO2 SLP303 T00331022
                 401891044 =
2018-04-23 23:52 METAR KORE 240352Z AUTO 19004KT 10SM CLR 09/M04 A3042 RMK AO2 SLP303 T00891044 =
2018-04-23 22:52 METAR KORE 240252Z AUTO 17006KT 10SM CLR 10/M04 A3041 RMK AO2 SLP300 T01001039
                 50015 =
2018-04-23 21:52 METAR KORE 240152Z AUTO 19007KT 10SM CLR 12/M05 A3042 RMK AO2 SLP302 T01171050 =
2018-04-23 20:52 METAR KORE 240052Z AUTO 18008KT 10SM CLR 13/M04 A3040 RMK AO2 SLP297 T01281039 =
2018-04-23 19:52 METAR KORE 232352Z AUTO 19003KT 10SM CLR 12/M06 A3036 RMK AO2 SLP286 T01171061
                 10189 20117 55006 =
2018-04-23 18:52 METAR KORE 232252Z AUTO 17007KT 10SM CLR 18/M13 A3036 RMK AO2 SLP286 T01781133 =
2018-04-23 17:52 METAR KORE 232152Z AUTO 18010KT 10SM CLR 18/M13 A3038 RMK AO2 SLP290 T01831133 =
2018-04-23 16:52 METAR KORE 232052Z AUTO 20008KT 10SM CLR 19/M10 A3038 RMK AO2 SLP292 T01891100
                 56017 =
2018-04-23 15:52 METAR KORE 231952Z AUTO 17004KT 10SM CLR 19/M11 A3038 RMK AO2 SLP293 T01891111 =
2018-04-23 14:52 METAR KORE 231852Z AUTO VRB04KT 10SM CLR 19/M11 A3041 RMK AO2 SLP300 T01891111 =
2018-04-23 13:52 METAR KORE 231752Z AUTO 00000KT 10SM CLR 18/M11 A3043 RMK AO2 RAB1656E05 SLP310
                 P0000 60000 T01781111 10178 20017 58020 =
2018-04-23 12:52 METAR KORE 231652Z AUTO 10SM CLR 16/M11 A3045 RMK AO2 SLP317 T01561106 =
2018-04-23 11:52 METAR KORE 231552Z AUTO 21004KT 10SM CLR 14/M10 A3048 RMK AO2 SLP324 T01441100 =
2018-04-23 10:52 METAR KORE 231452Z AUTO 00000KT 10SM CLR 13/M11 A3049 RMK AO2 SLP330 T01281106
                 58006 =
2018-04-23 09:52 METAR KORE 231352Z AUTO 01003KT 10SM CLR 12/M07 A3051 RMK AO2 SLP336 T01171072 =
2018-04-23 08:52 METAR KORE 231252Z AUTO 00000KT 10SM CLR 06/M04 A3052 RMK AO2 SLP339 T00611044 =
2018-04-23 07:52 METAR KORE 231152Z AUTO 00000KT 10SM CLR 02/M04 A3051 RMK AO2 SLP338 I6000
                 T00171039 10017 21044 53016 =
2018-04-23 06:52 METAR KORE 231052Z AUTO 00000KT 10SM CLR M02/M03 A3050 RMK AO2 SLP332 T10221033
                 =
2018-04-23 05:52 METAR KORE 230952Z AUTO 00000KT 10SM CLR M04/M06 A3048 RMK AO2 SLP325 I1000
                 T10441056 =
2018-04-23 04:52 METAR KORE 230852Z AUTO 00000KT 10SM CLR M04/M05 A3046 RMK AO2 SLP321 T10391050
                 53012 =

Support USWX by starting your Amazon purchase here.